| time (UTC) | temp F | wind direction | speed knots | gust knots | rain 1hr in | rain 24hr in | rain mn in | humidity % | barometer mb |
| 20260510213059 | 59 | 294 | 4.3 | 11.3 | 0.00 | 0.39 | 0.39 | 42 | 1009.7 |
| 20260510211543 | 61 | 284 | 0.0 | 0.0 | 0.00 | 0.39 | 0.39 | 47 | 1009.4 |
| 20260510210050 | 60 | 261 | 0.9 | 8.7 | 0.00 | 0.39 | 0.39 | 46 | 1009.2 |
| 20260510204551 | 61 | 307 | 0.0 | 8.7 | 0.00 | 0.39 | 0.39 | 49 | 1009.2 |
| 20260510203009 | 60 | 285 | 0.0 | 0.0 | 0.00 | 0.39 | 0.39 | 51 | 1009.1 |
| 20260510201507 | 59 | 287 | 0.0 | 9.6 | 0.00 | 0.39 | 0.39 | 52 | 1009.1 |
| 20260510200004 | 58 | 222 | 0.0 | 5.2 | 0.00 | 0.39 | 0.39 | 53 | 1009.2 |
| 20260510194506 | 60 | 237 | 0.9 | 7.8 | 0.00 | 0.39 | 0.39 | 54 | 1009.2 |
| 20260510193102 | 60 | 293 | 1.7 | 7.0 | 0.00 | 0.39 | 0.39 | 53 | 1009.2 |
| 20260510191600 | 59 | 225 | 0.9 | 7.8 | 0.00 | 0.39 | 0.39 | 55 | 1009.3 |
| 20260510190031 | 59 | 298 | 0.0 | 8.7 | 0.00 | 0.39 | 0.39 | 56 | 1009.2 |
| 20260510184530 | 58 | 290 | 0.0 | 6.1 | 0.00 | 0.39 | 0.39 | 56 | 1009.3 |
| 20260510183018 | 57 | 230 | 0.0 | 2.6 | 0.01 | 0.39 | 0.39 | 61 | 1009.3 |
| 20260510181536 | 56 | 191 | 0.0 | 6.1 | 0.01 | 0.39 | 0.39 | 78 | 1009.3 |
| 20260510180010 | 55 | 192 | 0.0 | 4.3 | 0.01 | 0.39 | 0.39 | 80 | 1009.5 |
| 20260510174507 | 51 | 244 | 0.0 | 0.0 | 0.01 | 0.39 | 0.39 | 80 | 1009.5 |
| 20260510173032 | 51 | 271 | 0.0 | 0.0 | 0.00 | 0.38 | 0.38 | 92 | 1009.5 |
| 20260510171535 | 50 | 272 | 0.0 | 0.0 | 0.05 | 0.38 | 0.38 | 93 | 1009.5 |
| 20260510170029 | 49 | 272 | 0.0 | 0.0 | 0.15 | 0.38 | 0.38 | 94 | 1009.4 |
| 20260510164530 | 49 | 273 | 0.0 | 0.0 | 0.26 | 0.38 | 0.38 | 95 | 1009.4 |
| 20260510163026 | 49 | 273 | 0.0 | 2.6 | 0.35 | 0.38 | 0.38 | 96 | 1009.3 |
| 20260510161523 | 48 | 360 | 0.0 | 0.0 | 0.31 | 0.32 | 0.32 | 94 | 1009.0 |
| 20260510160023 | 48 | 360 | 0.0 | 0.0 | 0.21 | 0.22 | 0.22 | 94 | 1008.7 |
| 20260510154519 | 49 | 36 | 0.0 | 0.0 | 0.10 | 0.11 | 0.11 | 94 | 1008.7 |
| 20260510153017 | 49 | 36 | 0.0 | 0.0 | 0.02 | 0.03 | 0.03 | 94 | 1008.7 |
| 20260510151516 | 49 | 36 | 0.0 | 2.6 | 0.00 | 0.01 | 0.01 | 93 | 1008.7 |
| 20260510150013 | 50 | 193 | 0.0 | 0.0 | 0.00 | 0.01 | 0.01 | 93 | 1008.9 |
| 20260510144513 | 50 | 193 | 0.0 | 0.0 | 0.00 | 0.01 | 0.01 | 93 | 1008.8 |
| 20260510143012 | 50 | 193 | 0.0 | 0.9 | 0.00 | 0.01 | 0.01 | 92 | 1008.7 |
| 20260510141512 | 50 | 193 | 0.0 | 0.9 | 0.00 | 0.01 | 0.01 | 93 | 1008.7 |
| 20260510140008 | 49 | 193 | 0.0 | 0.0 | 0.00 | 0.01 | 0.01 | 93 | 1008.7 |
| 20260510134509 | 49 | 193 | 0.0 | 0.0 | 0.00 | 0.01 | 0.01 | 92 | 1008.9 |
| 20260510133007 | 48 | 193 | 0.0 | 0.0 | 0.00 | 0.01 | 0.01 | 92 | 1008.6 |
| 20260510131505 | 48 | 193 | 0.0 | 0.0 | 0.00 | 0.01 | 0.01 | 93 | 1008.5 |
| 20260510130003 | 48 | 193 | 0.0 | 3.5 | 0.00 | 0.01 | 0.01 | 92 | 1008.3 |
| 20260510124604 | 48 | 194 | 0.0 | 4.3 | 0.00 | 0.01 | 0.01 | 92 | 1008.2 |
| 20260510123059 | 48 | 194 | 0.0 | 1.7 | 0.00 | 0.01 | 0.01 | 90 | 1008.2 |
| 20260510121558 | 50 | 198 | 0.0 | 4.3 | 0.00 | 0.01 | 0.01 | 89 | 1008.2 |
| 20260510120053 | 49 | 199 | 0.0 | 5.2 | 0.00 | 0.01 | 0.01 | 92 | 1008.0 |
| 20260510114555 | 48 | 190 | 0.0 | 0.0 | 0.00 | 0.01 | 0.01 | 93 | 1008.0 |
| 20260510113047 | 48 | 179 | 0.0 | 0.0 | 0.00 | 0.01 | 0.01 | 95 | 1008.1 |
| 20260510111545 | 47 | 179 | 0.0 | 0.0 | 0.00 | 0.01 | 0.01 | 95 | 1008.1 |
| 20260510110041 | 46 | 179 | 0.0 | 0.0 | 0.00 | 0.01 | 0.01 | 94 | 1007.1 |
| 20260510104539 | 46 | 180 | 0.0 | 0.0 | 0.00 | 0.01 | 0.01 | 95 | 1007.3 |
| 20260510103048 | 45 | 180 | 0.0 | 0.0 | 0.00 | 0.01 | 0.01 | 95 | 1007.5 |
| 20260510101536 | 45 | 180 | 0.0 | 0.0 | 0.00 | 0.01 | 0.01 | 94 | 1007.2 |
| 20260510100034 | 45 | 180 | 0.0 | 0.0 | 0.00 | 0.01 | 0.01 | 94 | 1007.0 |
| 20260510094530 | 45 | 146 | 0.0 | 1.7 | 0.01 | 0.01 | 0.01 | 94 | 1006.8 |
| 20260510093039 | 45 | 146 | 0.0 | 0.0 | 0.01 | 0.01 | 0.01 | 94 | 1006.5 |
| 20260510091525 | 45 | 194 | 0.0 | 0.0 | 0.01 | 0.01 | 0.01 | 94 | 1006.5 |
| 20260510090023 | 45 | 194 | 0.0 | 2.6 | 0.01 | 0.01 | 0.01 | 93 | 1006.6 |
| 20260510084528 | 46 | 194 | 0.0 | 0.9 | 0.00 | 0.00 | 0.00 | 93 | 1007.3 |
| 20260510083017 | 46 | 194 | 0.0 | 0.0 | 0.00 | 0.00 | 0.00 | 92 | 1007.2 |
| 20260510081524 | 46 | 194 | 0.0 | 0.0 | 0.00 | 0.00 | 0.00 | 91 | 1007.3 |
| 20260510080020 | 46 | 194 | 0.0 | 0.0 | 0.00 | 0.00 | 0.00 | 91 | 1007.2 |
| 20260510074513 | 46 | 195 | 0.0 | 0.0 | 0.00 | 0.00 | 0.00 | 91 | 1007.2 |
| 20260510073013 | 46 | 195 | 0.0 | 0.9 | 0.00 | 0.00 | 0.00 | 90 | 1007.3 |
| 20260510071514 | 46 | 196 | 0.0 | 4.3 | 0.00 | 0.00 | 0.00 | 90 | 1007.2 |
| 20260510070011 | 46 | 197 | 0.0 | 1.7 | 0.00 | 0.00 | 0.00 | 90 | 1007.0 |
| 20260510064508 | 46 | 197 | 0.0 | 0.0 | 0.00 | 0.00 | 0.00 | 90 | 1007.0 |
| 20260510063006 | 45 | 197 | 0.0 | 0.9 | 0.00 | 0.00 | 0.00 | 91 | 1006.9 |
| 20260510061506 | 45 | 194 | 0.0 | 7.0 | 0.00 | 0.00 | 0.00 | 90 | 1006.9 |
| 20260510060004 | 46 | 190 | 0.0 | 3.5 | 0.00 | 0.00 | 0.00 | 90 | 1007.1 |
| 20260510054532 | 46 | 188 | 0.0 | 7.0 | 0.00 | 0.00 | 0.00 | 90 | 1007.0 |
| 20260510053030 | 46 | 196 | 0.0 | 10.4 | 0.00 | 0.00 | 0.00 | 89 | 1007.2 |
| 20260510051526 | 46 | 188 | 0.0 | 5.2 | 0.00 | 0.00 | 0.00 | 89 | 1007.5 |
| 20260510050024 | 46 | 197 | 0.0 | 6.1 | 0.00 | 0.00 | 0.00 | 89 | 1007.3 |
| 20260510044523 | 46 | 212 | 0.0 | 0.9 | 0.00 | 0.00 | 0.00 | 89 | 1007.0 |
| 20260510043024 | 46 | 188 | 0.0 | 7.0 | 0.00 | 0.00 | 0.00 | 89 | 1006.8 |
| 20260510041518 | 46 | 180 | 0.0 | 9.6 | 0.00 | 0.00 | 0.00 | 88 | 1007.2 |
| 20260510040019 | 46 | 198 | 0.0 | 8.7 | 0.00 | 0.00 | 0.00 | 88 | 1007.5 |
| 20260510034517 | 46 | 183 | 0.9 | 6.1 | 0.00 | 0.00 | 0.00 | 88 | 1007.3 |
| 20260510033016 | 46 | 115 | 0.0 | 4.3 | 0.00 | 0.00 | 0.00 | 87 | 1007.2 |
| 20260510031531 | 46 | 207 | 0.0 | 0.9 | 0.00 | 0.00 | 0.00 | 86 | 1007.4 |
| 20260510030016 | 46 | 189 | 0.0 | 7.0 | 0.00 | 0.00 | 0.00 | 86 | 1007.8 |
| 20260510024510 | 46 | 177 | 0.0 | 3.5 | 0.00 | 0.00 | 0.00 | 85 | 1007.9 |
| 20260510023009 | 46 | 197 | 0.0 | 1.7 | 0.00 | 0.00 | 0.00 | 84 | 1007.6 |
| 20260510021537 | 46 | 186 | 0.0 | 1.7 | 0.00 | 0.00 | 0.00 | 84 | 1007.9 |
| 20260510020037 | 46 | 182 | 0.9 | 6.1 | 0.00 | 0.00 | 0.00 | 84 | 1007.9 |
| 20260510014534 | 46 | 202 | 0.0 | 7.8 | 0.00 | 0.00 | 0.00 | 84 | 1008.0 |
| 20260510013031 | 46 | 184 | 0.0 | 2.6 | 0.00 | 0.00 | 0.00 | 84 | 1008.2 |
| 20260510011538 | 46 | 184 | 0.0 | 0.9 | 0.00 | 0.00 | 0.00 | 83 | 1008.4 |
| 20260510010028 | 46 | 181 | 0.0 | 0.0 | 0.00 | 0.00 | 0.00 | 83 | 1008.6 |
| 20260510004525 | 46 | 181 | 0.0 | 5.2 | 0.00 | 0.00 | 0.00 | 82 | 1008.5 |
| 20260510003050 | 46 | 180 | 0.0 | 2.6 | 0.00 | 0.00 | 0.00 | 81 | 1008.3 |
| 20260510001528 | 46 | 181 | 0.0 | 5.2 | 0.00 | 0.00 | 0.00 | 81 | 1008.3 |
| 20260510000023 | 46 | 178 | 0.0 | 0.0 | 0.00 | 0.00 | 0.00 | 81 | 1008.4 |
| 20260509234527 | 47 | 164 | 0.0 | 0.0 | 0.00 | 0.00 | 0.00 | 80 | 1008.2 |
| 20260509233022 | 47 | 164 | 0.0 | 7.8 | 0.00 | 0.00 | 0.00 | 79 | 1008.2 |
| 20260509231528 | 47 | 171 | 0.0 | 5.2 | 0.00 | 0.00 | 0.00 | 79 | 1008.1 |
| 20260509230025 | 47 | 175 | 0.0 | 4.3 | 0.00 | 0.00 | 0.00 | 78 | 1008.3 |
| 20260509224517 | 47 | 171 | 0.9 | 7.8 | 0.00 | 0.00 | 0.00 | 77 | 1008.4 |
| 20260509223014 | 47 | 188 | 0.0 | 7.8 | 0.00 | 0.00 | 0.00 | 77 | 1008.5 |
| 20260509221513 | 47 | 197 | 0.0 | 5.2 | 0.00 | 0.00 | 0.00 | 77 | 1008.5 |
| 20260509220012 | 47 | 197 | 0.0 | 1.7 | 0.00 | 0.00 | 0.00 | 78 | 1008.6 |
| 20260509214510 | 47 | 197 | 0.0 | 0.0 | 0.00 | 0.00 | 0.00 | 79 | 1008.7 |